Time;durP1;ratioP1;P1;durP2;ratioP2;P2;SDS_P1;SDS_P2;PMS_P1;PMS_P2;Temp;Humidity;BMP_temperature;BMP_pressure;BME280_temperature;BME280_humidity;BME280_pressure;Samples;Min_cycle;Max_cycle;Signal;HPM_P1;HPM_P2
2023/09/04 00:00:10;;;;;;;1.52;1.42;;;;;;;;;;5961239;28;20054;-73
2023/09/04 00:03:01;;;;;;;1.77;1.45;;;;;;;;;;5948568;28;20554;-73
2023/09/04 00:05:52;;;;;;;1.35;1.20;;;;;;;;;;5937614;28;20397;-71
2023/09/04 00:08:43;;;;;;;2.53;1.02;;;;;;;;;;5937466;28;20105;-72
2023/09/04 00:11:33;;;;;;;1.75;1.65;;;;;;;;;;5937136;28;20036;-72
2023/09/04 00:14:25;;;;;;;17.83;1.42;;;;;;;;;;5937205;28;20051;-73
2023/09/04 00:17:18;;;;;;;2.03;1.23;;;;;;;;;;5937116;28;20363;-74
2023/09/04 00:20:12;;;;;;;2.20;1.30;;;;;;;;;;5937360;28;20058;-72
2023/09/04 00:23:03;;;;;;;2.67;1.42;;;;;;;;;;5936717;28;20398;-73
2023/09/04 00:25:54;;;;;;;12.02;1.30;;;;;;;;;;5937217;28;20047;-72
2023/09/04 00:28:45;;;;;;;3.38;1.23;;;;;;;;;;5937050;28;20059;-73
2023/09/04 00:31:36;;;;;;;6.57;2.28;;;;;;;;;;5936936;28;20123;-72
2023/09/04 00:34:26;;;;;;;8.70;1.77;;;;;;;;;;5935640;28;20130;-73
2023/09/04 00:37:17;;;;;;;4.93;1.38;;;;;;;;;;5936533;28;20044;-74
2023/09/04 00:40:08;;;;;;;2.22;1.20;;;;;;;;;;5936747;28;20052;-72
2023/09/04 00:42:59;;;;;;;2.28;1.77;;;;;;;;;;5937082;28;20040;-72
2023/09/04 00:45:50;;;;;;;1.48;1.30;;;;;;;;;;5936441;28;20387;-73
2023/09/04 00:48:42;;;;;;;5.75;1.75;;;;;;;;;;5936476;28;20114;-72
2023/09/04 00:51:33;;;;;;;3.42;1.33;;;;;;;;;;5936553;28;20039;-72
2023/09/04 00:54:24;;;;;;;4.10;1.20;;;;;;;;;;5934991;28;20046;-73
2023/09/04 00:57:16;;;;;;;1.33;1.15;;;;;;;;;;5936203;28;20044;-73
2023/09/04 01:00:13;;;;;;;3.85;1.20;;;;;;;;;;5918430;28;20048;-73
2023/09/04 01:03:04;;;;;;;4.80;1.70;;;;;;;;;;5936276;28;20063;-73
2023/09/04 01:05:55;;;;;;;2.83;1.10;;;;;;;;;;5935131;28;20055;-72
2023/09/04 01:08:46;;;;;;;4.18;1.58;;;;;;;;;;5935941;28;20044;-73
2023/09/04 01:12:04;;;;;;;4.65;1.90;;;;;;;;;;5935918;28;20362;-72
2023/09/04 01:14:55;;;;;;;7.18;1.92;;;;;;;;;;5936160;28;20040;-71
2023/09/04 01:17:47;;;;;;;2.08;1.50;;;;;;;;;;5934560;28;20056;-73
2023/09/04 01:20:39;;;;;;;4.97;1.92;;;;;;;;;;5917698;28;20379;-72
2023/09/04 01:23:30;;;;;;;2.80;1.67;;;;;;;;;;5935833;28;20505;-72
2023/09/04 01:26:29;;;;;;;5.05;1.90;;;;;;;;;;5934245;28;20127;-73
2023/09/04 01:29:29;;;;;;;;;;;;;;;;;;5936048;28;20055;-72
2023/09/04 01:32:36;;;;;;;3.45;1.65;;;;;;;;;;5934034;28;19920;-72
2023/09/04 01:35:30;;;;;;;3.83;1.83;;;;;;;;;;5934454;28;20067;-72
2023/09/04 01:38:21;;;;;;;3.40;1.35;;;;;;;;;;5934075;28;20056;-73
2023/09/04 01:41:12;;;;;;;3.50;1.13;;;;;;;;;;5917483;28;20070;-73
2023/09/04 01:44:03;;;;;;;3.38;1.45;;;;;;;;;;5935483;28;20119;-72
2023/09/04 01:46:54;;;;;;;1.42;1.20;;;;;;;;;;5935379;28;20131;-73
2023/09/04 01:49:45;;;;;;;1.13;0.77;;;;;;;;;;5935153;28;20050;-72
2023/09/04 01:52:36;;;;;;;1.17;0.90;;;;;;;;;;5935138;28;20047;-73
2023/09/04 01:55:27;;;;;;;3.40;1.65;;;;;;;;;;5934996;28;20510;-73
2023/09/04 01:58:17;;;;;;;1.60;1.50;;;;;;;;;;5934737;28;20048;-72
2023/09/04 02:01:08;;;;;;;2.20;1.45;;;;;;;;;;5934985;28;20044;-73
2023/09/04 02:03:59;;;;;;;1.70;1.33;;;;;;;;;;5935322;28;20086;-74
2023/09/04 02:06:50;;;;;;;4.88;1.05;;;;;;;;;;5935033;28;20126;-72
2023/09/04 02:09:40;;;;;;;1.20;1.10;;;;;;;;;;5934718;28;20051;-71
2023/09/04 02:12:31;;;;;;;6.32;1.45;;;;;;;;;;5934697;28;20038;-72
2023/09/04 02:15:22;;;;;;;0.65;0.65;;;;;;;;;;5934670;28;20578;-75
2023/09/04 02:18:13;;;;;;;1.38;1.20;;;;;;;;;;5934670;28;20510;-73
2023/09/04 02:21:05;;;;;;;10.55;1.90;;;;;;;;;;5934662;28;20512;-73
2023/09/04 02:23:56;;;;;;;5.88;1.92;;;;;;;;;;5935083;28;20044;-71
2023/09/04 02:26:46;;;;;;;2.13;1.58;;;;;;;;;;5934359;28;20063;-74
2023/09/04 02:29:37;;;;;;;1.67;1.08;;;;;;;;;;5933233;28;20044;-72
2023/09/04 02:32:28;;;;;;;3.13;1.83;;;;;;;;;;5916069;28;20063;-73
2023/09/04 02:35:19;;;;;;;2.08;1.02;;;;;;;;;;5934182;28;20044;-73
2023/09/04 02:38:09;;;;;;;1.95;1.17;;;;;;;;;;5934323;28;20051;-72
2023/09/04 02:41:00;;;;;;;1.52;1.33;;;;;;;;;;5934650;28;20501;-72
2023/09/04 02:43:51;;;;;;;1.75;1.50;;;;;;;;;;5934398;28;20119;-73
2023/09/04 02:46:41;;;;;;;1.13;0.85;;;;;;;;;;5933863;28;20058;-73
2023/09/04 02:49:32;;;;;;;1.40;1.30;;;;;;;;;;5934231;28;20051;-73
2023/09/04 02:52:23;;;;;;;1.40;1.23;;;;;;;;;;5934189;28;20040;-71
2023/09/04 02:55:14;;;;;;;1.55;1.33;;;;;;;;;;5934184;28;20044;-73
2023/09/04 02:58:05;;;;;;;1.02;0.90;;;;;;;;;;5934130;28;20048;-73
2023/09/04 03:00:55;;;;;;;2.50;1.50;;;;;;;;;;5934369;28;20044;-73
2023/09/04 03:03:46;;;;;;;3.35;1.85;;;;;;;;;;5934062;28;20044;-72
2023/09/04 03:06:38;;;;;;;2.88;1.58;;;;;;;;;;5933779;28;20482;-73
2023/09/04 03:09:31;;;;;;;1.30;0.93;;;;;;;;;;5934030;28;20044;-73
2023/09/04 03:12:29;;;;;;;2.60;1.75;;;;;;;;;;5949113;28;20051;-73
2023/09/04 03:15:20;;;;;;;1.50;1.40;;;;;;;;;;5955654;28;20075;-72
2023/09/04 03:18:11;;;;;;;3.47;1.42;;;;;;;;;;5956886;28;20072;-73
2023/09/04 03:21:02;;;;;;;1.48;1.17;;;;;;;;;;5957534;28;20055;-73
2023/09/04 03:23:53;;;;;;;4.15;1.38;;;;;;;;;;5958072;28;20067;-74
2023/09/04 03:26:44;;;;;;;0.60;0.60;;;;;;;;;;5957351;28;20054;-72
2023/09/04 03:29:34;;;;;;;2.97;1.73;;;;;;;;;;5957361;28;20055;-72
2023/09/04 03:32:25;;;;;;;3.40;1.30;;;;;;;;;;5939091;28;20046;-74
2023/09/04 03:35:19;;;;;;;4.05;1.50;;;;;;;;;;5957330;28;20071;-72
2023/09/04 03:38:10;;;;;;;2.33;1.33;;;;;;;;;;5957127;28;20108;-74
2023/09/04 03:41:01;;;;;;;9.80;1.52;;;;;;;;;;5957132;28;20128;-73
2023/09/04 03:43:51;;;;;;;1.10;1.00;;;;;;;;;;5957622;28;20044;-73
2023/09/04 03:46:42;;;;;;;1.77;1.00;;;;;;;;;;5956899;28;20044;-72
2023/09/04 03:49:33;;;;;;;3.10;1.60;;;;;;;;;;5957228;28;20046;-73
2023/09/04 03:52:24;;;;;;;4.50;1.67;;;;;;;;;;5957062;28;20050;-74
2023/09/04 03:55:15;;;;;;;2.85;1.65;;;;;;;;;;5956672;28;20051;-72
2023/09/04 03:58:05;;;;;;;1.42;0.90;;;;;;;;;;5958069;28;20042;-73
2023/09/04 04:00:57;;;;;;;4.05;0.88;;;;;;;;;;5961673;28;20069;-73
2023/09/04 04:03:55;;;;;;;3.17;1.35;;;;;;;;;;5943061;28;20082;-73
2023/09/04 04:06:46;;;;;;;2.23;1.50;;;;;;;;;;5960965;28;20122;-74
2023/09/04 04:09:37;;;;;;;2.40;1.63;;;;;;;;;;5961026;28;20277;-72
2023/09/04 04:12:28;;;;;;;4.63;1.08;;;;;;;;;;5960922;28;20114;-74
2023/09/04 04:15:19;;;;;;;0.80;0.80;;;;;;;;;;5942978;28;20062;-72
2023/09/04 04:18:10;;;;;;;0.82;0.80;;;;;;;;;;5960897;28;20080;-72
2023/09/04 04:21:00;;;;;;;2.42;1.25;;;;;;;;;;5960960;28;20130;-74
2023/09/04 04:23:51;;;;;;;9.20;1.45;;;;;;;;;;5961171;28;20126;-73
2023/09/04 04:26:43;;;;;;;3.53;1.13;;;;;;;;;;5960697;28;20040;-72
2023/09/04 04:29:33;;;;;;;1.05;0.98;;;;;;;;;;5960617;28;20047;-74
2023/09/04 04:32:24;;;;;;;1.67;1.15;;;;;;;;;;5960746;28;20039;-73
2023/09/04 04:35:15;;;;;;;3.13;1.38;;;;;;;;;;5942616;28;20048;-72
2023/09/04 04:38:07;;;;;;;0.63;0.63;;;;;;;;;;5960542;28;20489;-72
2023/09/04 04:40:58;;;;;;;0.98;0.77;;;;;;;;;;5960927;28;20048;-73
2023/09/04 04:43:48;;;;;;;0.65;0.65;;;;;;;;;;5960466;28;20044;-73
2023/09/04 04:46:40;;;;;;;2.78;1.55;;;;;;;;;;5960180;28;20077;-72
2023/09/04 04:49:30;;;;;;;1.50;0.98;;;;;;;;;;5960385;28;20039;-72
2023/09/04 04:52:21;;;;;;;1.08;0.93;;;;;;;;;;5960181;28;20121;-74
2023/09/04 04:55:12;;;;;;;2.78;1.33;;;;;;;;;;5960113;28;20492;-72
2023/09/04 04:58:03;;;;;;;3.25;1.23;;;;;;;;;;5941792;28;20367;-71
2023/09/04 05:00:53;;;;;;;1.85;1.55;;;;;;;;;;5960452;28;20054;-74
2023/09/04 05:03:44;;;;;;;1.15;0.88;;;;;;;;;;5959823;28;20052;-72
2023/09/04 05:06:35;;;;;;;1.63;1.27;;;;;;;;;;5959850;28;20050;-72
2023/09/04 05:09:26;;;;;;;3.72;1.33;;;;;;;;;;5958568;28;20040;-72
2023/09/04 05:12:16;;;;;;;1.48;1.23;;;;;;;;;;5959594;28;20046;-72
2023/09/04 05:15:07;;;;;;;1.17;1.08;;;;;;;;;;5959569;28;20051;-72
2023/09/04 05:17:58;;;;;;;4.43;1.63;;;;;;;;;;5960321;28;20067;-74
2023/09/04 05:20:49;;;;;;;0.70;0.70;;;;;;;;;;5959464;28;20054;-72
2023/09/04 05:23:39;;;;;;;1.00;0.90;;;;;;;;;;5959250;28;20368;-73
2023/09/04 05:26:30;;;;;;;0.32;0.32;;;;;;;;;;5941089;28;20050;-73
2023/09/04 05:29:21;;;;;;;1.20;0.73;;;;;;;;;;5959366;28;20051;-72
2023/09/04 05:32:12;;;;;;;3.72;0.82;;;;;;;;;;5959239;28;20418;-71
2023/09/04 05:35:03;;;;;;;1.27;0.60;;;;;;;;;;5959359;28;20054;-73
2023/09/04 05:37:54;;;;;;;2.67;1.20;;;;;;;;;;5959422;28;20051;-74
2023/09/04 05:40:48;;;;;;;1.80;1.02;;;;;;;;;;5959031;28;20044;-72
2023/09/04 05:43:39;;;;;;;8.75;1.60;;;;;;;;;;5941004;28;20046;-73
2023/09/04 05:46:33;;;;;;;0.45;0.45;;;;;;;;;;5958913;28;20044;-72
2023/09/04 05:49:24;;;;;;;1.00;0.63;;;;;;;;;;5958781;28;20115;-72
2023/09/04 05:52:14;;;;;;;0.70;0.60;;;;;;;;;;5958935;28;20155;-72
2023/09/04 05:55:06;;;;;;;1.30;0.82;;;;;;;;;;5958835;28;20047;-72
2023/09/04 05:57:57;;;;;;;3.65;1.15;;;;;;;;;;5959101;28;20412;-72
2023/09/04 06:00:48;;;;;;;0.60;0.60;;;;;;;;;;5958600;28;20040;-72
2023/09/04 06:03:40;;;;;;;1.13;0.60;;;;;;;;;;5958419;28;20386;-73
2023/09/04 06:06:31;;;;;;;0.95;0.52;;;;;;;;;;5958497;28;20047;-72
2023/09/04 06:09:22;;;;;;;1.33;0.90;;;;;;;;;;5958618;28;20039;-73
2023/09/04 06:12:12;;;;;;;4.20;1.13;;;;;;;;;;5958402;28;20036;-72
2023/09/04 06:15:04;;;;;;;1.40;0.63;;;;;;;;;;5958577;28;20046;-73
2023/09/04 06:17:54;;;;;;;1.38;0.77;;;;;;;;;;5958653;28;20063;-71
2023/09/04 06:20:46;;;;;;;2.25;0.45;;;;;;;;;;5957794;28;20066;-72
2023/09/04 06:23:37;;;;;;;1.25;0.80;;;;;;;;;;5958173;28;20370;-72
2023/09/04 06:26:31;;;;;;;1.33;0.47;;;;;;;;;;5958108;28;20043;-73
2023/09/04 06:29:22;;;;;;;1.42;0.50;;;;;;;;;;5940026;28;20039;-73
2023/09/04 06:32:14;;;;;;;0.95;0.70;;;;;;;;;;5939612;28;20165;-72
2023/09/04 06:35:05;;;;;;;1.60;0.60;;;;;;;;;;5940273;28;20075;-72
2023/09/04 06:37:57;;;;;;;5.50;1.40;;;;;;;;;;5958497;28;20044;-71
2023/09/04 06:40:48;;;;;;;0.65;0.50;;;;;;;;;;5957793;28;20074;-74
2023/09/04 06:43:39;;;;;;;0.65;0.65;;;;;;;;;;5957814;28;20046;-72
2023/09/04 06:46:29;;;;;;;6.25;1.23;;;;;;;;;;5957959;28;20132;-72
2023/09/04 06:49:20;;;;;;;1.27;0.60;;;;;;;;;;5939636;28;20075;-72
2023/09/04 06:52:11;;;;;;;1.77;1.08;;;;;;;;;;5957836;28;20040;-72
2023/09/04 06:55:05;;;;;;;0.80;0.52;;;;;;;;;;5957586;28;20409;-73
2023/09/04 06:57:56;;;;;;;2.58;1.52;;;;;;;;;;5940242;28;20036;-74
2023/09/04 07:00:46;;;;;;;0.35;0.32;;;;;;;;;;5957615;28;20039;-72
2023/09/04 07:03:39;;;;;;;3.40;1.23;;;;;;;;;;5957535;28;20056;-72
2023/09/04 07:06:29;;;;;;;1.58;0.32;;;;;;;;;;5957400;28;20043;-73
2023/09/04 07:09:20;;;;;;;2.72;0.95;;;;;;;;;;5957689;28;20058;-73
2023/09/04 07:12:12;;;;;;;0.50;0.45;;;;;;;;;;5957325;28;20050;-73
2023/09/04 07:15:03;;;;;;;0.68;0.47;;;;;;;;;;5957600;28;20044;-74
2023/09/04 07:17:54;;;;;;;1.42;0.57;;;;;;;;;;5957740;28;20051;-72
2023/09/04 07:20:45;;;;;;;2.25;0.70;;;;;;;;;;5957399;28;20044;-73
2023/09/04 07:23:36;;;;;;;1.35;0.40;;;;;;;;;;5939479;28;20040;-72
2023/09/04 07:26:27;;;;;;;5.03;1.45;;;;;;;;;;5957262;28;20090;-73
2023/09/04 07:29:17;;;;;;;1.25;0.73;;;;;;;;;;5957404;28;20040;-73
2023/09/04 07:32:08;;;;;;;0.63;0.63;;;;;;;;;;5957243;28;20047;-72
2023/09/04 07:34:59;;;;;;;1.23;0.60;;;;;;;;;;5962091;28;20071;-72
2023/09/04 07:37:49;;;;;;;1.05;0.95;;;;;;;;;;5962130;28;20051;-73
2023/09/04 07:40:40;;;;;;;0.55;0.40;;;;;;;;;;5961709;28;20043;-73
2023/09/04 07:43:32;;;;;;;4.50;0.95;;;;;;;;;;5961797;28;20039;-73
2023/09/04 07:46:23;;;;;;;1.10;0.50;;;;;;;;;;5960349;28;20047;-73
2023/09/04 07:49:14;;;;;;;1.23;0.98;;;;;;;;;;5961469;28;20047;-73
2023/09/04 07:52:04;;;;;;;1.17;0.63;;;;;;;;;;5926954;28;20124;-73
2023/09/04 07:54:55;;;;;;;0.30;0.30;;;;;;;;;;5961807;28;20047;-72
2023/09/04 07:57:46;;;;;;;2.15;0.43;;;;;;;;;;5961509;28;20048;-74
2023/09/04 08:00:46;;;;;;;2.20;0.75;;;;;;;;;;5961377;28;20054;-73
2023/09/04 08:03:37;;;;;;;0.95;0.77;;;;;;;;;;5960394;28;20475;-72
2023/09/04 08:06:28;;;;;;;0.60;0.60;;;;;;;;;;5961284;28;20120;-72
2023/09/04 08:09:19;;;;;;;3.88;1.33;;;;;;;;;;5943296;28;20117;-72
2023/09/04 08:12:09;;;;;;;2.28;0.93;;;;;;;;;;5961240;28;20047;-73
2023/09/04 08:15:00;;;;;;;1.90;1.05;;;;;;;;;;5961256;28;20052;-74
2023/09/04 08:17:51;;;;;;;0.50;0.45;;;;;;;;;;5961691;28;20043;-73
2023/09/04 08:20:42;;;;;;;2.30;1.00;;;;;;;;;;5960800;28;20035;-74
2023/09/04 08:23:32;;;;;;;1.10;0.82;;;;;;;;;;5960906;28;20047;-73
2023/09/04 08:26:23;;;;;;;1.85;0.82;;;;;;;;;;5960857;28;20043;-72
2023/09/04 08:29:14;;;;;;;1.63;0.73;;;;;;;;;;5960969;28;20039;-73
2023/09/04 08:32:05;;;;;;;2.08;0.93;;;;;;;;;;5960660;28;20047;-72
2023/09/04 08:34:56;;;;;;;1.23;1.02;;;;;;;;;;5943333;28;20052;-72
2023/09/04 08:37:47;;;;;;;1.05;0.95;;;;;;;;;;5960465;28;20042;-73
2023/09/04 08:40:41;;;;;;;1.15;1.00;;;;;;;;;;5960281;28;20119;-73
2023/09/04 08:43:32;;;;;;;3.33;1.20;;;;;;;;;;5959163;28;20054;-72
2023/09/04 08:46:26;;;;;;;1.33;1.02;;;;;;;;;;5960288;28;20077;-73
2023/09/04 08:49:17;;;;;;;2.90;1.10;;;;;;;;;;5942763;28;20055;-73
2023/09/04 08:52:09;;;;;;;3.67;1.90;;;;;;;;;;5942199;28;20058;-72
2023/09/04 08:55:00;;;;;;;0.75;0.68;;;;;;;;;;5960799;28;20036;-71
2023/09/04 08:57:51;;;;;;;3.50;1.35;;;;;;;;;;5960451;28;20120;-72
2023/09/04 09:00:46;;;;;;;1.10;0.65;;;;;;;;;;5960121;28;20058;-73
2023/09/04 09:03:37;;;;;;;2.28;1.38;;;;;;;;;;5959023;28;20050;-72
2023/09/04 09:06:29;;;;;;;13.52;1.35;;;;;;;;;;5941978;28;20120;-73
2023/09/04 09:09:20;;;;;;;1.77;1.20;;;;;;;;;;5959968;28;20040;-73
2023/09/04 09:12:11;;;;;;;3.50;1.10;;;;;;;;;;5959753;28;20554;-72
2023/09/04 09:15:02;;;;;;;4.68;1.98;;;;;;;;;;5959670;28;20043;-73
2023/09/04 09:17:56;;;;;;;3.55;1.38;;;;;;;;;;5960234;28;20044;-72
2023/09/04 09:20:46;;;;;;;1.92;1.45;;;;;;;;;;5941755;28;20048;-72
2023/09/04 09:23:37;;;;;;;1.42;0.82;;;;;;;;;;5959536;28;20046;-72
2023/09/04 09:26:28;;;;;;;1.90;1.35;;;;;;;;;;5959233;28;20039;-72
2023/09/04 09:29:19;;;;;;;4.43;1.52;;;;;;;;;;5959648;28;20050;-73
2023/09/04 09:32:10;;;;;;;1.95;1.00;;;;;;;;;;5941022;28;20052;-72
2023/09/04 09:35:02;;;;;;;2.40;1.90;;;;;;;;;;5959099;28;20051;-73
2023/09/04 09:37:53;;;;;;;1.88;1.48;;;;;;;;;;5959526;28;20448;-73
2023/09/04 09:40:44;;;;;;;3.05;1.95;;;;;;;;;;5959111;28;20050;-73
2023/09/04 09:43:35;;;;;;;2.58;1.63;;;;;;;;;;5959224;28;20051;-71
2023/09/04 09:46:28;;;;;;;4.70;1.77;;;;;;;;;;5958835;28;20050;-74
2023/09/04 09:49:19;;;;;;;1.77;1.15;;;;;;;;;;5940920;28;20059;-74
2023/09/04 09:52:11;;;;;;;2.13;1.42;;;;;;;;;;5958869;28;20071;-73
2023/09/04 09:55:01;;;;;;;2.78;1.25;;;;;;;;;;5958669;28;20047;-74
2023/09/04 09:57:54;;;;;;;2.42;1.50;;;;;;;;;;5958950;28;20387;-73
2023/09/04 10:00:45;;;;;;;3.08;1.40;;;;;;;;;;5957586;28;20036;-73
2023/09/04 10:03:36;;;;;;;2.58;1.98;;;;;;;;;;5958754;28;20070;-72
2023/09/04 10:06:34;;;;;;;2.90;2.25;;;;;;;;;;5958816;28;20368;-72
2023/09/04 10:09:28;;;;;;;2.13;1.33;;;;;;;;;;5958700;28;20035;-74
2023/09/04 10:12:58;;;;;;;1.15;0.95;;;;;;;;;;5940454;28;20048;-72
2023/09/04 10:15:52;;;;;;;1.42;0.85;;;;;;;;;;5951131;28;20050;-72
2023/09/04 10:18:47;;;;;;;6.63;1.58;;;;;;;;;;5958426;28;20051;-73
2023/09/04 10:21:46;;;;;;;3.05;1.83;;;;;;;;;;5940561;28;20073;-73
2023/09/04 10:25:09;;;;;;;3.90;1.33;;;;;;;;;;5957348;28;20568;-73
2023/09/04 10:28:09;;;;;;;1.50;1.40;;;;;;;;;;5958456;28;20401;-72
2023/09/04 10:31:01;;;;;;;2.25;1.20;;;;;;;;;;5940411;28;20093;-73
2023/09/04 10:33:52;;;;;;;1.90;1.30;;;;;;;;;;5958418;28;20542;-72
2023/09/04 10:36:43;;;;;;;1.50;1.35;;;;;;;;;;5939859;28;20039;-74
2023/09/04 10:39:34;;;;;;;1.23;0.95;;;;;;;;;;5939850;28;20036;-72
2023/09/04 10:42:27;;;;;;;2.58;1.60;;;;;;;;;;5939701;28;20042;-73
2023/09/04 10:45:18;;;;;;;1.60;1.10;;;;;;;;;;5939970;28;20123;-74
2023/09/04 10:48:10;;;;;;;1.45;1.08;;;;;;;;;;5939891;28;20192;-72
2023/09/04 10:51:33;;;;;;;3.60;1.55;;;;;;;;;;5957994;28;20577;-72
2023/09/04 10:54:25;;;;;;;1.63;0.85;;;;;;;;;;5957863;28;20542;-72
2023/09/04 10:57:16;;;;;;;4.07;2.08;;;;;;;;;;5957654;28;20058;-72
2023/09/04 11:00:07;;;;;;;2.60;1.05;;;;;;;;;;5957597;28;20040;-72
2023/09/04 11:03:23;;;;;;;3.70;1.20;;;;;;;;;;5958180;28;20040;-73
2023/09/04 11:06:20;;;;;;;3.10;0.80;;;;;;;;;;5957354;28;20153;-73
2023/09/04 11:09:14;;;;;;;1.38;0.93;;;;;;;;;;5960873;28;20050;-73
2023/09/04 11:12:10;;;;;;;6.57;0.88;;;;;;;;;;5944470;28;20055;-74
2023/09/04 11:15:06;;;;;;;0.47;0.47;;;;;;;;;;5961320;28;20077;-73
2023/09/04 11:17:57;;;;;;;0.52;0.35;;;;;;;;;;5962816;28;20097;-74
2023/09/04 11:20:54;;;;;;;1.05;0.55;;;;;;;;;;5962570;28;20046;-74
2023/09/04 11:23:45;;;;;;;2.53;0.80;;;;;;;;;;5962066;28;20127;-74
2023/09/04 11:26:38;;;;;;;4.32;1.33;;;;;;;;;;5944357;28;20064;-71
2023/09/04 11:29:29;;;;;;;0.30;0.20;;;;;;;;;;5962156;28;20039;-72
2023/09/04 11:32:20;;;;;;;0.75;0.50;;;;;;;;;;5961927;28;20479;-72
2023/09/04 11:35:13;;;;;;;0.63;0.30;;;;;;;;;;5961942;28;20154;-73
2023/09/04 11:38:26;;;;;;;2.08;0.77;;;;;;;;;;5962203;28;20473;-73
2023/09/04 11:41:19;;;;;;;0.63;0.47;;;;;;;;;;5961740;28;20127;-72
2023/09/04 11:44:10;;;;;;;0.52;0.50;;;;;;;;;;5960823;28;20048;-73
2023/09/04 11:47:03;;;;;;;1.35;0.60;;;;;;;;;;5961508;28;20039;-73
2023/09/04 11:49:55;;;;;;;1.40;0.88;;;;;;;;;;5960863;28;20070;-73
2023/09/04 11:52:46;;;;;;;1.35;0.77;;;;;;;;;;5961953;28;20062;-73
2023/09/04 11:55:37;;;;;;;2.55;0.82;;;;;;;;;;5961514;28;20070;-73
2023/09/04 11:58:28;;;;;;;0.90;0.82;;;;;;;;;;5961346;28;20069;-72
2023/09/04 12:01:18;;;;;;;0.85;0.52;;;;;;;;;;5961505;28;20382;-73
2023/09/04 12:04:09;;;;;;;3.30;0.85;;;;;;;;;;5961464;28;20048;-73
2023/09/04 12:07:07;;;;;;;1.50;0.50;;;;;;;;;;5943790;28;20391;-72
2023/09/04 12:09:59;;;;;;;0.60;0.32;;;;;;;;;;5943508;28;20413;-72
2023/09/04 12:12:52;;;;;;;2.05;0.30;;;;;;;;;;5961384;28;20132;-74
2023/09/04 12:15:43;;;;;;;0.38;0.30;;;;;;;;;;5961083;28;20042;-73
2023/09/04 12:18:37;;;;;;;0.47;0.45;;;;;;;;;;5960636;28;20054;-72
2023/09/04 12:21:28;;;;;;;1.35;0.82;;;;;;;;;;5960179;28;20386;-72
2023/09/04 12:24:21;;;;;;;0.57;0.47;;;;;;;;;;5949808;28;20386;-72
2023/09/04 12:27:14;;;;;;;0.70;0.57;;;;;;;;;;5951004;28;20047;-72
2023/09/04 12:30:08;;;;;;;0.98;0.80;;;;;;;;;;5960379;28;20048;-74
2023/09/04 12:32:59;;;;;;;1.10;0.85;;;;;;;;;;5959656;28;20044;-72
2023/09/04 12:35:58;;;;;;;0.20;0.17;;;;;;;;;;5951198;28;20036;-73
2023/09/04 12:38:49;;;;;;;0.32;0.22;;;;;;;;;;5936272;28;20391;-74
2023/09/04 12:41:39;;;;;;;0.73;0.52;;;;;;;;;;5936706;28;20044;-72
2023/09/04 12:44:30;;;;;;;4.95;1.17;;;;;;;;;;5936344;28;20067;-73
2023/09/04 12:47:21;;;;;;;1.58;0.65;;;;;;;;;;5936085;28;20607;-71
2023/09/04 12:50:12;;;;;;;1.02;0.77;;;;;;;;;;5951158;28;20052;-74
2023/09/04 12:53:03;;;;;;;0.50;0.45;;;;;;;;;;5959936;28;20043;-73
2023/09/04 12:55:54;;;;;;;0.85;0.55;;;;;;;;;;5947241;28;20048;-73
2023/09/04 12:58:44;;;;;;;20.17;0.82;;;;;;;;;;5948891;28;20562;-74
2023/09/04 13:01:35;;;;;;;1.38;0.90;;;;;;;;;;5936267;28;20047;-73
2023/09/04 13:04:26;;;;;;;1.00;0.40;;;;;;;;;;5941600;28;20368;-72
2023/09/04 13:07:17;;;;;;;6.28;0.68;;;;;;;;;;5930236;28;20051;-74
2023/09/04 13:10:09;;;;;;;0.95;0.70;;;;;;;;;;5958397;28;20043;-72
2023/09/04 13:13:01;;;;;;;1.63;0.45;;;;;;;;;;5941494;28;20056;-74
2023/09/04 13:15:51;;;;;;;0.63;0.25;;;;;;;;;;5948008;28;20486;-74
2023/09/04 13:18:42;;;;;;;1.55;0.70;;;;;;;;;;5951732;28;20540;-74
2023/09/04 13:21:33;;;;;;;3.38;0.63;;;;;;;;;;5956467;27;20124;-73
2023/09/04 13:24:23;;;;;;;2.28;0.80;;;;;;;;;;5929370;28;20055;-73
2023/09/04 13:27:14;;;;;;;2.45;0.75;;;;;;;;;;5951161;28;20040;-73
2023/09/04 13:30:06;;;;;;;0.65;0.35;;;;;;;;;;5950196;28;20174;-73
2023/09/04 13:32:57;;;;;;;2.47;0.63;;;;;;;;;;5938498;28;20065;-74
2023/09/04 13:35:48;;;;;;;0.52;0.47;;;;;;;;;;5952681;28;20040;-74
2023/09/04 13:38:39;;;;;;;11.77;1.83;;;;;;;;;;5953960;28;20518;-74
2023/09/04 13:41:29;;;;;;;3.50;0.65;;;;;;;;;;5951021;28;20494;-73
2023/09/04 13:44:22;;;;;;;0.52;0.38;;;;;;;;;;5954367;28;20118;-74
2023/09/04 13:47:13;;;;;;;0.17;0.17;;;;;;;;;;5951570;28;20047;-75
2023/09/04 13:50:05;;;;;;;2.30;0.75;;;;;;;;;;5956996;28;20047;-72
2023/09/04 13:52:57;;;;;;;0.40;0.40;;;;;;;;;;5959116;28;20036;-73
2023/09/04 13:55:48;;;;;;;2.55;1.33;;;;;;;;;;5955533;28;20398;-72
2023/09/04 13:58:39;;;;;;;0.47;0.45;;;;;;;;;;5954086;28;20039;-73
2023/09/04 14:01:30;;;;;;;1.13;0.40;;;;;;;;;;5958845;28;20473;-72
2023/09/04 14:04:20;;;;;;;1.30;0.70;;;;;;;;;;5940452;28;20201;-74
2023/09/04 14:07:11;;;;;;;1.92;0.60;;;;;;;;;;5958683;28;20048;-72
2023/09/04 14:10:02;;;;;;;0.95;0.30;;;;;;;;;;5958538;28;20054;-72
2023/09/04 14:12:53;;;;;;;0.32;0.25;;;;;;;;;;5959053;28;20043;-74
2023/09/04 14:15:44;;;;;;;3.78;0.63;;;;;;;;;;5955605;28;20069;-72
2023/09/04 14:18:35;;;;;;;0.52;0.50;;;;;;;;;;5952966;28;20060;-73
2023/09/04 14:21:26;;;;;;;0.50;0.50;;;;;;;;;;5958260;28;20470;-74
2023/09/04 14:24:16;;;;;;;0.20;0.20;;;;;;;;;;5958249;28;20047;-73
2023/09/04 14:27:07;;;;;;;0.88;0.30;;;;;;;;;;5958046;28;20047;-73
2023/09/04 14:29:58;;;;;;;1.13;0.73;;;;;;;;;;5940677;28;20043;-74
2023/09/04 14:32:48;;;;;;;1.27;0.57;;;;;;;;;;5958041;28;20435;-74
2023/09/04 14:35:39;;;;;;;0.93;0.60;;;;;;;;;;5956164;28;20419;-73
2023/09/04 14:38:34;;;;;;;0.88;0.50;;;;;;;;;;5951903;28;20040;-73
2023/09/04 14:41:30;;;;;;;1.38;0.63;;;;;;;;;;5940393;28;20046;-73
2023/09/04 14:44:21;;;;;;;1.35;0.60;;;;;;;;;;5957932;28;20067;-73
2023/09/04 14:47:12;;;;;;;0.60;0.60;;;;;;;;;;5946550;28;20056;-72
2023/09/04 14:50:04;;;;;;;0.30;0.30;;;;;;;;;;5941724;28;20525;-74
2023/09/04 14:52:54;;;;;;;1.92;0.80;;;;;;;;;;5930910;28;20075;-74
2023/09/04 14:55:45;;;;;;;0.95;0.85;;;;;;;;;;5933057;28;21803;-72
2023/09/04 14:58:36;;;;;;;1.95;0.77;;;;;;;;;;5948092;28;20122;-73
2023/09/04 15:01:27;;;;;;;0.85;0.57;;;;;;;;;;5948407;28;20044;-73
2023/09/04 15:04:18;;;;;;;0.60;0.45;;;;;;;;;;5957072;28;20047;-74
2023/09/04 15:07:09;;;;;;;2.70;0.63;;;;;;;;;;5957249;28;20138;-73
2023/09/04 15:10:00;;;;;;;1.98;0.85;;;;;;;;;;5956366;28;20100;-73
2023/09/04 15:12:51;;;;;;;0.55;0.45;;;;;;;;;;5947290;28;20039;-74
2023/09/04 15:15:41;;;;;;;0.63;0.30;;;;;;;;;;5931259;28;20047;-73
2023/09/04 15:18:33;;;;;;;1.73;0.80;;;;;;;;;;5927836;28;20083;-72
2023/09/04 15:21:24;;;;;;;0.93;0.40;;;;;;;;;;5942880;28;20551;-73
2023/09/04 15:24:15;;;;;;;1.48;0.65;;;;;;;;;;5933423;28;20395;-73
2023/09/04 15:27:05;;;;;;;0.80;0.65;;;;;;;;;;5933180;28;20578;-73
2023/09/04 15:29:56;;;;;;;3.15;0.73;;;;;;;;;;5915766;28;20063;-73
2023/09/04 15:32:48;;;;;;;0.82;0.82;;;;;;;;;;5936145;28;20043;-73
2023/09/04 15:35:43;;;;;;;1.67;0.90;;;;;;;;;;5957249;28;20482;-72
2023/09/04 15:38:36;;;;;;;1.60;1.05;;;;;;;;;;5942293;28;20047;-73
2023/09/04 15:41:27;;;;;;;1.17;0.65;;;;;;;;;;5956196;28;20043;-72
2023/09/04 15:44:18;;;;;;;1.92;1.08;;;;;;;;;;5934589;28;20052;-72
2023/09/04 15:47:09;;;;;;;5.07;0.98;;;;;;;;;;5933281;28;20036;-73
2023/09/04 15:50:00;;;;;;;2.17;0.80;;;;;;;;;;5933345;28;20051;-72
2023/09/04 15:52:51;;;;;;;1.35;0.80;;;;;;;;;;5918896;28;20050;-73
2023/09/04 15:55:47;;;;;;;1.88;1.02;;;;;;;;;;5960375;28;20050;-73
2023/09/04 15:58:38;;;;;;;0.80;0.68;;;;;;;;;;5960391;28;20466;-73
2023/09/04 16:01:29;;;;;;;0.80;0.80;;;;;;;;;;5952580;28;20386;-73
2023/09/04 16:04:20;;;;;;;2.45;0.90;;;;;;;;;;5942894;28;20490;-72
2023/09/04 16:07:10;;;;;;;4.70;0.57;;;;;;;;;;5960548;28;20042;-74
2023/09/04 16:10:01;;;;;;;1.85;0.63;;;;;;;;;;5938097;28;20052;-74
2023/09/04 16:12:52;;;;;;;4.05;0.70;;;;;;;;;;5946741;28;20339;-73
2023/09/04 16:15:42;;;;;;;0.63;0.30;;;;;;;;;;5934580;28;20475;-72
2023/09/04 16:18:33;;;;;;;1.33;0.90;;;;;;;;;;5919078;28;20505;-72
2023/09/04 16:21:24;;;;;;;1.40;0.55;;;;;;;;;;5927651;28;20387;-73
2023/09/04 16:24:17;;;;;;;1.55;0.98;;;;;;;;;;5958417;28;20052;-72
2023/09/04 16:27:08;;;;;;;0.60;0.60;;;;;;;;;;5960523;28;20812;-74
2023/09/04 16:29:59;;;;;;;0.65;0.65;;;;;;;;;;5957341;28;20048;-73
2023/09/04 16:32:50;;;;;;;1.67;0.80;;;;;;;;;;5956988;28;20039;-73
2023/09/04 16:35:42;;;;;;;0.60;0.60;;;;;;;;;;5960691;28;20039;-73
2023/09/04 16:38:33;;;;;;;0.68;0.57;;;;;;;;;;5960344;28;20046;-74
2023/09/04 16:41:26;;;;;;;1.40;0.70;;;;;;;;;;5953357;28;21195;-74
2023/09/04 16:44:16;;;;;;;0.57;0.52;;;;;;;;;;5938441;28;20047;-72
2023/09/04 16:47:07;;;;;;;1.48;0.93;;;;;;;;;;5940014;28;20039;-72
2023/09/04 16:49:58;;;;;;;1.23;0.77;;;;;;;;;;5957780;28;20494;-74
2023/09/04 16:52:49;;;;;;;1.25;0.82;;;;;;;;;;5946973;28;20044;-72
2023/09/04 16:55:39;;;;;;;2.13;0.77;;;;;;;;;;5957251;28;20043;-72
2023/09/04 16:58:33;;;;;;;1.65;0.88;;;;;;;;;;5953724;28;20044;-74
2023/09/04 17:01:24;;;;;;;1.00;0.90;;;;;;;;;;5953156;28;20036;-72
2023/09/04 17:04:18;;;;;;;0.65;0.65;;;;;;;;;;5937964;28;20468;-72
2023/09/04 17:07:08;;;;;;;2.25;1.40;;;;;;;;;;5917684;28;20395;-72
2023/09/04 17:09:59;;;;;;;8.65;3.58;;;;;;;;;;5936269;28;20154;-72